Coe Hill, Canada
Current Conditions -  °F | °C
As of 2:47 PM on Saturday 25 Oct 2014 (Local Time) from CYPQ Reporting Station
Overcast Overcast  
Wind Chill: 57°   Ceiling: 2400
Heat Index: 57°   Visibility: 9mi
Dew Point: 50°   Wind: 14mph
Humidity: 77%   Direction: 300°WNW
Pressure: 29.56"   Gusts: 21mph
Location:  44.85°N, 77.83°W
Report Text: CYPQ 251847Z AUTO 30012G18KT 9SM OVC024 14/10 A2956 RMK SLP014 DENSITY ALT 1000FT
Loading
Personal Weather Stations






























Interactive Weather Map
Tropical Storm Tracking
New forecast layout! Learn more

10-Day Weather Forecast

Advertisements
Track Severe Weather on mobile